createdAt,value
2018-11-04T00:00:37.974Z,1011.63
2018-11-04T00:01:43.549Z,1011.59
2018-11-04T00:02:48.995Z,1011.58
2018-11-04T00:03:55.518Z,1011.59
2018-11-04T00:05:00.001Z,1011.59
2018-11-04T00:06:05.500Z,1011.57
2018-11-04T00:07:11.020Z,1011.53
2018-11-04T00:08:16.518Z,1011.55
2018-11-04T00:09:22.023Z,1011.57
2018-11-04T00:10:28.552Z,1011.60
2018-11-04T00:11:33.049Z,1011.57
2018-11-04T00:12:38.542Z,1011.60
2018-11-04T00:13:44.059Z,1011.61
2018-11-04T00:14:49.596Z,1011.58
2018-11-04T00:15:55.073Z,1011.58
2018-11-04T00:17:01.576Z,1011.53
2018-11-04T00:18:06.089Z,1011.50
2018-11-04T00:19:11.580Z,1011.54
2018-11-04T00:20:17.107Z,1011.54
2018-11-04T00:21:22.592Z,1011.50
2018-11-04T00:22:28.101Z,1011.55
2018-11-04T00:23:34.615Z,1011.49
2018-11-04T00:24:39.113Z,1011.47
2018-11-04T00:25:44.611Z,1011.42
2018-11-04T00:26:50.128Z,1011.40
2018-11-04T00:27:55.632Z,1011.39
2018-11-04T00:29:01.897Z,1011.41
2018-11-04T00:30:07.651Z,1011.39
2018-11-04T00:31:12.152Z,1011.35
2018-11-04T00:32:17.642Z,1011.36
2018-11-04T00:33:23.161Z,1011.36
2018-11-04T00:34:28.648Z,1011.30
2018-11-04T00:35:34.152Z,1011.32
2018-11-04T00:36:40.673Z,1011.35
2018-11-04T00:37:45.179Z,1011.35
2018-11-04T00:38:50.679Z,1011.36
2018-11-04T00:39:56.201Z,1011.33
2018-11-04T00:41:01.688Z,1011.32
2018-11-04T00:42:07.195Z,1011.32
2018-11-04T00:43:13.712Z,1011.29
2018-11-04T00:44:18.211Z,1011.29
2018-11-04T00:45:23.742Z,1011.22
2018-11-04T00:46:29.896Z,1011.19
2018-11-04T00:47:34.732Z,1011.22
2018-11-04T00:48:40.232Z,1011.21
2018-11-04T00:49:46.741Z,1011.20
2018-11-04T00:50:51.238Z,1011.19
2018-11-04T00:51:56.742Z,1011.18
2018-11-04T00:53:02.248Z,1011.19
2018-11-04T00:54:07.763Z,1011.15
2018-11-04T00:55:13.269Z,1011.18
2018-11-04T00:56:19.772Z,1011.18
2018-11-04T00:57:24.262Z,1011.20
2018-11-04T00:58:29.773Z,1011.22
2018-11-04T00:59:35.298Z,1011.18
2018-11-04T01:00:40.783Z,1011.18
2018-11-04T01:01:46.302Z,1011.15
2018-11-04T01:02:52.824Z,1011.15
2018-11-04T01:03:57.302Z,1011.14
2018-11-04T01:05:02.807Z,1011.12
2018-11-04T01:06:08.331Z,1011.11
2018-11-04T01:07:13.815Z,1011.07
2018-11-04T01:08:19.325Z,1011.07
2018-11-04T01:09:25.833Z,1011.03
2018-11-04T01:10:30.350Z,1011.05
2018-11-04T01:11:35.843Z,1011.08
2018-11-04T01:12:41.359Z,1011.06
2018-11-04T01:13:46.854Z,1011.00
2018-11-04T01:14:52.353Z,1010.95
2018-11-04T01:15:58.869Z,1010.93
2018-11-04T01:17:03.364Z,1010.92
2018-11-04T01:18:08.867Z,1010.93
2018-11-04T01:19:14.391Z,1010.88
2018-11-04T01:20:19.885Z,1010.89
2018-11-04T01:21:25.393Z,1010.88
2018-11-04T01:22:31.915Z,1010.82
2018-11-04T01:23:36.401Z,1010.86
2018-11-04T01:24:41.932Z,1010.82
2018-11-04T01:25:47.406Z,1010.78
2018-11-04T01:26:52.915Z,1010.77
2018-11-04T01:27:58.422Z,1010.76
2018-11-04T01:29:04.948Z,1010.75
2018-11-04T01:30:09.454Z,1010.73
2018-11-04T01:31:14.943Z,1010.71
2018-11-04T01:32:20.438Z,1010.73
2018-11-04T01:33:25.961Z,1010.68
2018-11-04T01:34:31.456Z,1010.61
2018-11-04T01:35:37.969Z,1010.59
2018-11-04T01:36:42.467Z,1010.56
2018-11-04T01:37:47.960Z,1010.56
2018-11-04T01:38:53.474Z,1010.52
2018-11-04T01:39:58.979Z,1010.51
2018-11-04T01:41:04.481Z,1010.50
2018-11-04T01:42:10.998Z,1010.47
2018-11-04T01:43:15.482Z,1010.47
2018-11-04T01:44:20.993Z,1010.46
2018-11-04T01:45:26.494Z,1010.45
2018-11-04T01:46:32.001Z,1010.38
2018-11-04T01:47:37.508Z,1010.40
2018-11-04T01:48:44.020Z,1010.37
2018-11-04T01:49:48.510Z,1010.36
2018-11-04T01:50:54.019Z,1010.40
2018-11-04T01:51:59.554Z,1010.34
2018-11-04T01:53:05.042Z,1010.36
2018-11-04T01:54:10.537Z,1010.38
2018-11-04T01:55:17.061Z,1010.33
2018-11-04T01:56:21.541Z,1010.36
2018-11-04T01:57:27.056Z,1010.29
2018-11-04T01:58:32.553Z,1010.26
2018-11-04T01:59:38.071Z,1010.24
2018-11-04T02:00:43.574Z,1010.27
2018-11-04T02:01:50.111Z,1010.28
2018-11-04T02:02:54.591Z,1010.27
2018-11-04T02:04:00.090Z,1010.33
2018-11-04T02:05:05.598Z,1010.29
2018-11-04T02:06:11.101Z,1010.22
2018-11-04T02:07:16.604Z,1010.22
2018-11-04T02:08:23.121Z,1010.20
2018-11-04T02:09:27.613Z,1010.25
2018-11-04T02:10:33.111Z,1010.20
2018-11-04T02:11:38.623Z,1010.18
2018-11-04T02:12:44.124Z,1010.13
2018-11-04T02:13:49.638Z,1010.13
2018-11-04T02:14:56.145Z,1010.11
2018-11-04T02:16:00.639Z,1010.14
2018-11-04T02:17:06.149Z,1010.07
2018-11-04T02:18:11.651Z,1010.05
2018-11-04T02:19:17.169Z,1010.06
2018-11-04T02:20:22.678Z,1010.01
2018-11-04T02:21:29.177Z,1009.98
2018-11-04T02:22:33.666Z,1009.95
2018-11-04T02:23:39.186Z,1009.93
2018-11-04T02:24:44.693Z,1009.94
2018-11-04T02:25:50.198Z,1009.93
2018-11-04T02:26:55.702Z,1009.92
2018-11-04T02:28:02.218Z,1009.94
2018-11-04T02:29:06.710Z,1009.86
2018-11-04T02:30:12.210Z,1009.84
2018-11-04T02:31:17.731Z,1009.79
2018-11-04T02:32:23.226Z,1009.81
2018-11-04T02:33:28.735Z,1009.76
2018-11-04T02:34:35.253Z,1009.74
2018-11-04T02:35:39.738Z,1009.72
2018-11-04T02:36:45.251Z,1009.68
2018-11-04T02:37:50.752Z,1009.68
2018-11-04T02:38:56.251Z,1009.63
2018-11-04T02:40:01.753Z,1009.69
2018-11-04T02:41:08.282Z,1009.68
2018-11-04T02:42:12.764Z,1009.75
2018-11-04T02:43:18.281Z,1009.76
2018-11-04T02:44:23.776Z,1009.71
2018-11-04T02:45:29.280Z,1009.72
2018-11-04T02:46:34.790Z,1009.68
2018-11-04T02:47:41.308Z,1009.69
2018-11-04T02:48:45.801Z,1009.69
2018-11-04T02:49:51.299Z,1009.61
2018-11-04T02:50:56.807Z,1009.66
2018-11-04T02:52:02.310Z,1009.63
2018-11-04T02:53:07.823Z,1009.58
2018-11-04T02:54:14.333Z,1009.56
2018-11-04T02:55:18.825Z,1009.53
2018-11-04T02:56:24.333Z,1009.51
2018-11-04T02:57:29.835Z,1009.54
2018-11-04T02:58:35.343Z,1009.51
2018-11-04T02:59:40.851Z,1009.48
2018-11-04T03:00:47.367Z,1009.47
2018-11-04T03:01:51.889Z,1009.43
2018-11-04T03:02:57.367Z,1009.45
2018-11-04T03:04:02.874Z,1009.42
2018-11-04T03:05:08.370Z,1009.43
2018-11-04T03:06:13.878Z,1009.41
2018-11-04T03:07:20.392Z,1009.37
2018-11-04T03:08:24.889Z,1009.32
2018-11-04T03:09:30.397Z,1009.35
2018-11-04T03:10:35.893Z,1009.32
2018-11-04T03:11:41.405Z,1009.22
2018-11-04T03:12:46.911Z,1009.28
2018-11-04T03:13:53.419Z,1009.24
2018-11-04T03:14:57.917Z,1009.21
2018-11-04T03:16:03.432Z,1009.23
2018-11-04T03:17:08.937Z,1009.22
2018-11-04T03:18:14.447Z,1009.19
2018-11-04T03:19:19.948Z,1009.20
2018-11-04T03:20:26.461Z,1009.15
2018-11-04T03:21:30.950Z,1009.18
2018-11-04T03:22:36.465Z,1009.15
2018-11-04T03:23:41.956Z,1009.18
2018-11-04T03:24:47.524Z,1009.19
2018-11-04T03:25:52.993Z,1009.15
2018-11-04T03:26:59.485Z,1009.17
2018-11-04T03:28:03.995Z,1009.20
2018-11-04T03:29:09.480Z,1009.07
2018-11-04T03:30:14.988Z,1009.08
2018-11-04T03:31:20.512Z,1009.09
2018-11-04T03:32:25.994Z,1009.06
2018-11-04T03:33:32.514Z,1009.12
2018-11-04T03:34:37.024Z,1009.13
2018-11-04T03:35:42.512Z,1009.11
2018-11-04T03:36:48.020Z,1009.09
2018-11-04T03:37:53.524Z,1009.06
2018-11-04T03:38:59.046Z,1009.09
2018-11-04T03:40:05.544Z,1009.10
2018-11-04T03:41:10.042Z,1009.11
2018-11-04T03:42:15.549Z,1009.07
2018-11-04T03:43:21.050Z,1009.11
2018-11-04T03:44:26.551Z,1009.09
2018-11-04T03:45:32.057Z,1009.07
2018-11-04T03:46:38.583Z,1009.05
2018-11-04T03:47:43.072Z,1009.04
2018-11-04T03:48:48.578Z,1009.05
2018-11-04T03:49:54.091Z,1009.06
2018-11-04T03:50:59.599Z,1009.07
2018-11-04T03:52:05.091Z,1009.03
2018-11-04T03:53:11.615Z,1009.08
2018-11-04T03:54:16.102Z,1009.05
2018-11-04T03:55:21.608Z,1009.14
2018-11-04T03:56:27.115Z,1009.12
2018-11-04T03:57:32.623Z,1009.13
2018-11-04T03:58:38.130Z,1009.09
2018-11-04T03:59:44.657Z,1009.14
2018-11-04T04:00:49.134Z,1009.13
2018-11-04T04:01:54.650Z,1009.13
2018-11-04T04:03:00.151Z,1009.14
2018-11-04T04:04:05.662Z,1009.12
2018-11-04T04:05:11.163Z,1009.16
2018-11-04T04:06:17.671Z,1009.14
2018-11-04T04:07:22.169Z,1009.11
2018-11-04T04:08:27.669Z,1009.16
2018-11-04T04:09:33.186Z,1009.13
2018-11-04T04:10:38.687Z,1009.12
2018-11-04T04:11:44.208Z,1009.19
2018-11-04T04:12:50.707Z,1009.15
2018-11-04T04:13:55.201Z,1009.13
2018-11-04T04:15:00.708Z,1009.16
2018-11-04T04:16:06.214Z,1009.12
2018-11-04T04:17:11.717Z,1009.10
2018-11-04T04:18:17.226Z,1009.12
2018-11-04T04:19:23.747Z,1009.10
2018-11-04T04:20:28.233Z,1009.05
2018-11-04T04:21:33.738Z,1009.08
2018-11-04T04:22:39.248Z,1009.09
2018-11-04T04:23:44.755Z,1009.08
2018-11-04T04:24:50.252Z,1009.08
2018-11-04T04:25:56.783Z,1009.08
2018-11-04T04:27:01.262Z,1009.04
2018-11-04T04:28:06.775Z,1009.06
2018-11-04T04:29:12.284Z,1009.07
2018-11-04T04:30:17.790Z,1009.02
2018-11-04T04:31:23.287Z,1009.00
2018-11-04T04:32:29.806Z,1009.03
2018-11-04T04:33:34.302Z,1009.02
2018-11-04T04:34:39.808Z,1008.98
2018-11-04T04:35:45.309Z,1009.00
2018-11-04T04:36:50.811Z,1008.94
2018-11-04T04:37:56.325Z,1008.92
2018-11-04T04:39:02.837Z,1008.90
2018-11-04T04:40:07.333Z,1008.93
2018-11-04T04:41:12.836Z,1008.91
2018-11-04T04:42:18.353Z,1008.84
2018-11-04T04:43:23.849Z,1008.86
2018-11-04T04:44:29.354Z,1008.85
2018-11-04T04:45:35.871Z,1008.86
2018-11-04T04:46:40.364Z,1008.84
2018-11-04T04:47:45.875Z,1008.87
2018-11-04T04:48:51.379Z,1008.87
2018-11-04T04:49:56.894Z,1008.81
2018-11-04T04:51:02.398Z,1008.82
2018-11-04T04:52:08.922Z,1008.78
2018-11-04T04:53:13.408Z,1008.77
2018-11-04T04:54:18.906Z,1008.74
2018-11-04T04:55:24.414Z,1008.71
2018-11-04T04:56:29.920Z,1008.73
2018-11-04T04:57:35.419Z,1008.69
2018-11-04T04:58:42.483Z,1008.67
2018-11-04T04:59:46.433Z,1008.67
2018-11-04T05:00:51.945Z,1008.66
2018-11-04T05:01:57.448Z,1008.64
2018-11-04T05:03:02.949Z,1008.62
2018-11-04T05:04:08.463Z,1008.66
2018-11-04T05:05:14.972Z,1008.64
2018-11-04T05:06:19.464Z,1008.64
2018-11-04T05:07:24.972Z,1008.66
2018-11-04T05:08:30.484Z,1008.61
2018-11-04T05:09:35.990Z,1008.60
2018-11-04T05:10:41.491Z,1008.61
2018-11-04T05:11:48.009Z,1008.64
2018-11-04T05:12:52.500Z,1008.61
2018-11-04T05:13:58.028Z,1008.62
2018-11-04T05:15:03.520Z,1008.67
2018-11-04T05:16:09.019Z,1008.63
2018-11-04T05:17:14.523Z,1008.58
2018-11-04T05:18:21.041Z,1008.55
2018-11-04T05:19:25.537Z,1008.55
2018-11-04T05:20:31.046Z,1008.59
2018-11-04T05:21:36.550Z,1008.54
2018-11-04T05:22:42.055Z,1008.55
2018-11-04T05:23:47.574Z,1008.57
2018-11-04T05:24:54.076Z,1008.57
2018-11-04T05:25:58.623Z,1008.58
2018-11-04T05:27:04.082Z,1008.52
2018-11-04T05:28:09.592Z,1008.60
2018-11-04T05:29:15.092Z,1008.58
2018-11-04T05:30:20.602Z,1008.59
2018-11-04T05:31:27.110Z,1008.54
2018-11-04T05:32:31.624Z,1008.59
2018-11-04T05:33:37.121Z,1008.56
2018-11-04T05:34:42.622Z,1008.58
2018-11-04T05:35:48.125Z,1008.59
2018-11-04T05:36:53.634Z,1008.62
2018-11-04T05:38:00.151Z,1008.60
2018-11-04T05:39:04.685Z,1008.58
2018-11-04T05:40:10.155Z,1008.59
2018-11-04T05:41:15.664Z,1008.59
2018-11-04T05:42:21.168Z,1008.56
2018-11-04T05:43:26.680Z,1008.57
2018-11-04T05:44:33.190Z,1008.56
2018-11-04T05:45:37.689Z,1008.55
2018-11-04T05:46:43.188Z,1008.53
2018-11-04T05:47:48.698Z,1008.57
2018-11-04T05:48:54.209Z,1008.52
2018-11-04T05:49:59.713Z,1008.57
2018-11-04T05:51:06.238Z,1008.57
2018-11-04T05:52:10.725Z,1008.60
2018-11-04T05:53:16.237Z,1008.55
2018-11-04T05:54:21.734Z,1008.58
2018-11-04T05:55:27.243Z,1008.55
2018-11-04T05:56:32.761Z,1008.60
2018-11-04T05:57:39.265Z,1008.57
2018-11-04T05:58:43.764Z,1008.58
2018-11-04T05:59:49.268Z,1008.56
2018-11-04T06:00:54.773Z,1008.55
2018-11-04T06:02:00.289Z,1008.53
2018-11-04T06:03:05.784Z,1008.55
2018-11-04T06:04:12.311Z,1008.57
2018-11-04T06:05:16.812Z,1008.54
2018-11-04T06:06:22.303Z,1008.59
2018-11-04T06:07:27.814Z,1008.55
2018-11-04T06:08:33.320Z,1008.55
2018-11-04T06:09:38.824Z,1008.56
2018-11-04T06:10:45.344Z,1008.54
2018-11-04T06:11:49.844Z,1008.56
2018-11-04T06:12:55.350Z,1008.55
2018-11-04T06:14:00.852Z,1008.54
2018-11-04T06:15:06.358Z,1008.52
2018-11-04T06:16:11.863Z,1008.50
2018-11-04T06:17:18.396Z,1008.55
2018-11-04T06:18:22.881Z,1008.57
2018-11-04T06:19:28.431Z,1008.56
2018-11-04T06:20:33.893Z,1008.52
2018-11-04T06:21:39.402Z,1008.55
2018-11-04T06:22:44.911Z,1008.55
2018-11-04T06:23:51.424Z,1008.55
2018-11-04T06:24:55.922Z,1008.51
2018-11-04T06:26:01.428Z,1008.49
2018-11-04T06:27:06.928Z,1008.52
2018-11-04T06:28:12.437Z,1008.51
2018-11-04T06:29:17.945Z,1008.53
2018-11-04T06:30:24.463Z,1008.55
2018-11-04T06:31:28.952Z,1008.50
2018-11-04T06:32:34.469Z,1008.51
2018-11-04T06:33:39.971Z,1008.50
2018-11-04T06:34:45.603Z,1008.52
2018-11-04T06:35:50.978Z,1008.52
2018-11-04T06:36:57.503Z,1008.50
2018-11-04T06:38:02.001Z,1008.52
2018-11-04T06:39:07.508Z,1008.51
2018-11-04T06:40:13.007Z,1008.49
2018-11-04T06:41:18.636Z,1008.52
2018-11-04T06:42:24.021Z,1008.48
2018-11-04T06:43:30.534Z,1008.46
2018-11-04T06:44:35.054Z,1008.50
2018-11-04T06:45:40.557Z,1008.49
2018-11-04T06:46:46.046Z,1008.49
2018-11-04T06:47:51.558Z,1008.50
2018-11-04T06:48:57.056Z,1008.47
2018-11-04T06:50:03.577Z,1008.46
2018-11-04T06:51:08.077Z,1008.46
2018-11-04T06:52:13.581Z,1008.48
2018-11-04T06:53:19.106Z,1008.47
2018-11-04T06:54:24.595Z,1008.48
2018-11-04T06:55:30.099Z,1008.47
2018-11-04T06:56:36.619Z,1008.51
2018-11-04T06:57:41.133Z,1008.48
2018-11-04T06:58:46.628Z,1008.48
2018-11-04T06:59:52.184Z,1008.46
2018-11-04T07:00:57.632Z,1008.46
2018-11-04T07:02:03.155Z,1008.51
2018-11-04T07:03:09.664Z,1008.52
2018-11-04T07:04:14.167Z,1008.53
2018-11-04T07:05:19.660Z,1008.49
2018-11-04T07:06:25.183Z,1008.52
2018-11-04T07:07:30.678Z,1008.50
2018-11-04T07:08:36.186Z,1008.46
2018-11-04T07:09:42.701Z,1008.45
2018-11-04T07:10:47.213Z,1008.43
2018-11-04T07:11:52.711Z,1008.45
2018-11-04T07:12:58.220Z,1008.47
2018-11-04T07:14:03.718Z,1008.42
2018-11-04T07:15:09.224Z,1008.46
2018-11-04T07:16:15.763Z,1008.45
2018-11-04T07:17:20.241Z,1008.42
2018-11-04T07:18:25.753Z,1008.41
2018-11-04T07:19:31.250Z,1008.43
2018-11-04T07:20:36.773Z,1008.43
2018-11-04T07:21:42.285Z,1008.44
2018-11-04T07:22:48.791Z,1008.43
2018-11-04T07:23:53.289Z,1008.41
2018-11-04T07:24:58.791Z,1008.44
2018-11-04T07:26:04.296Z,1008.43
2018-11-04T07:27:09.799Z,1008.46
2018-11-04T07:28:15.309Z,1008.48
2018-11-04T07:29:21.833Z,1008.42
2018-11-04T07:30:26.331Z,1008.46
2018-11-04T07:31:31.832Z,1008.47
2018-11-04T07:32:37.347Z,1008.47
2018-11-04T07:33:42.848Z,1008.46
2018-11-04T07:34:48.361Z,1008.46
2018-11-04T07:35:54.892Z,1008.49
2018-11-04T07:36:59.377Z,1008.46
2018-11-04T07:38:04.886Z,1008.46
2018-11-04T07:39:10.384Z,1008.45
2018-11-04T07:40:15.897Z,1008.44
2018-11-04T07:41:21.394Z,1008.47
2018-11-04T07:42:27.927Z,1008.43
2018-11-04T07:43:32.423Z,1008.40
2018-11-04T07:44:37.925Z,1008.43
2018-11-04T07:45:43.446Z,1008.39
2018-11-04T07:46:48.945Z,1008.39
2018-11-04T07:47:54.445Z,1008.40
2018-11-04T07:49:00.961Z,1008.41
2018-11-04T07:50:05.471Z,1008.40
2018-11-04T07:51:10.963Z,1008.39
2018-11-04T07:52:16.482Z,1008.36
2018-11-04T07:53:21.989Z,1008.34
2018-11-04T07:54:27.492Z,1008.29
2018-11-04T07:55:34.013Z,1008.31
2018-11-04T07:56:38.512Z,1008.27
2018-11-04T07:57:44.009Z,1008.26
2018-11-04T07:58:49.527Z,1008.25
2018-11-04T07:59:55.035Z,1008.26
2018-11-04T08:01:00.689Z,1008.19
2018-11-04T08:02:07.054Z,1008.15
2018-11-04T08:03:11.547Z,1008.15
2018-11-04T08:04:17.137Z,1008.15
2018-11-04T08:05:22.566Z,1008.10
2018-11-04T08:06:28.078Z,1008.10
2018-11-04T08:07:33.581Z,1008.13
2018-11-04T08:08:40.100Z,1008.12
2018-11-04T08:09:44.597Z,1008.11
2018-11-04T08:10:50.116Z,1008.11
2018-11-04T08:11:55.621Z,1008.10
2018-11-04T08:13:01.132Z,1008.08
2018-11-04T08:14:06.637Z,1008.07
2018-11-04T08:15:13.152Z,1008.07
2018-11-04T08:16:17.642Z,1008.10
2018-11-04T08:17:23.168Z,1008.09
2018-11-04T08:18:28.673Z,1008.09
2018-11-04T08:19:34.173Z,1008.09
2018-11-04T08:20:39.687Z,1008.06
2018-11-04T08:21:46.218Z,1008.04
2018-11-04T08:22:50.691Z,1008.02
2018-11-04T08:23:56.212Z,1008.02
2018-11-04T08:25:01.710Z,1007.99
2018-11-04T08:26:07.226Z,1007.99
2018-11-04T08:27:12.730Z,1007.96
2018-11-04T08:28:19.252Z,1007.98
2018-11-04T08:29:23.743Z,1007.97
2018-11-04T08:30:29.251Z,1008.00
2018-11-04T08:31:34.764Z,1007.96
2018-11-04T08:32:40.277Z,1007.99
2018-11-04T08:33:45.772Z,1007.99
2018-11-04T08:34:52.295Z,1007.95
2018-11-04T08:35:56.795Z,1007.97
2018-11-04T08:37:02.308Z,1007.93
2018-11-04T08:38:07.809Z,1007.98
2018-11-04T08:39:13.318Z,1007.93
2018-11-04T08:40:18.903Z,1007.94
2018-11-04T08:41:25.343Z,1007.90
2018-11-04T08:42:29.864Z,1007.90
2018-11-04T08:43:35.355Z,1007.90
2018-11-04T08:44:40.868Z,1007.89
2018-11-04T08:45:46.463Z,1007.83
2018-11-04T08:46:51.875Z,1007.83
2018-11-04T08:47:58.405Z,1007.87
2018-11-04T08:49:02.890Z,1007.83
2018-11-04T08:50:08.404Z,1007.83
2018-11-04T08:51:13.910Z,1007.79
2018-11-04T08:52:19.480Z,1007.82
2018-11-04T08:53:24.940Z,1007.83
2018-11-04T08:54:31.469Z,1007.85
2018-11-04T08:55:35.945Z,1007.87
2018-11-04T08:56:41.462Z,1007.84
2018-11-04T08:57:46.959Z,1007.83
2018-11-04T08:58:52.483Z,1007.80
2018-11-04T08:59:58.003Z,1007.84
2018-11-04T09:01:04.495Z,1007.85
2018-11-04T09:02:08.999Z,1007.83
2018-11-04T09:03:14.525Z,1007.85
2018-11-04T09:04:20.126Z,1007.78
2018-11-04T09:05:25.526Z,1007.83
2018-11-04T09:06:31.092Z,1007.79
2018-11-04T09:07:37.549Z,1007.80
2018-11-04T09:08:42.053Z,1007.79
2018-11-04T09:09:47.553Z,1007.74
2018-11-04T09:10:53.078Z,1007.74
2018-11-04T09:11:58.577Z,1007.72
2018-11-04T09:13:04.091Z,1007.75
2018-11-04T09:14:10.618Z,1007.74
2018-11-04T09:15:15.102Z,1007.72
2018-11-04T09:16:20.605Z,1007.72
2018-11-04T09:17:26.121Z,1007.71
2018-11-04T09:18:31.634Z,1007.72
2018-11-04T09:19:37.145Z,1007.69
2018-11-04T09:20:43.661Z,1007.67
2018-11-04T09:21:48.284Z,1007.65
2018-11-04T09:22:53.659Z,1007.63
2018-11-04T09:23:59.188Z,1007.63
2018-11-04T09:25:04.678Z,1007.63
2018-11-04T09:26:10.197Z,1007.57
2018-11-04T09:27:16.714Z,1007.52
2018-11-04T09:28:21.210Z,1007.48
2018-11-04T09:29:26.756Z,1007.53
2018-11-04T09:30:32.224Z,1007.50
2018-11-04T09:31:37.740Z,1007.54
2018-11-04T09:32:43.242Z,1007.52
2018-11-04T09:33:49.795Z,1007.50
2018-11-04T09:34:54.399Z,1007.49
2018-11-04T09:35:59.883Z,1007.52
2018-11-04T09:37:05.291Z,1007.49
2018-11-04T09:38:10.797Z,1007.50
2018-11-04T09:39:16.294Z,1007.43
2018-11-04T09:40:22.819Z,1007.45
2018-11-04T09:41:27.322Z,1007.46
2018-11-04T09:42:32.854Z,1007.45
2018-11-04T09:43:38.335Z,1007.42
2018-11-04T09:44:43.842Z,1007.45
2018-11-04T09:45:49.355Z,1007.48
2018-11-04T09:46:55.870Z,1007.50
2018-11-04T09:48:00.375Z,1007.48
2018-11-04T09:49:05.884Z,1007.48
2018-11-04T09:50:11.386Z,1007.51
2018-11-04T09:51:16.894Z,1007.47
2018-11-04T09:52:22.434Z,1007.48
2018-11-04T09:53:28.932Z,1007.46
2018-11-04T09:54:33.442Z,1007.45
2018-11-04T09:55:38.956Z,1007.47
2018-11-04T09:56:44.491Z,1007.48
2018-11-04T09:57:49.962Z,1007.44
2018-11-04T09:58:55.467Z,1007.46
2018-11-04T10:00:01.992Z,1007.46
2018-11-04T10:01:06.493Z,1007.49
2018-11-04T10:02:12.018Z,1007.51
2018-11-04T10:03:17.516Z,1007.55
2018-11-04T10:04:23.025Z,1007.59
2018-11-04T10:05:28.526Z,1007.56
2018-11-04T10:06:35.056Z,1007.56
2018-11-04T10:07:39.553Z,1007.63
2018-11-04T10:08:45.052Z,1007.63
2018-11-04T10:09:50.572Z,1007.63
2018-11-04T10:10:56.065Z,1007.66
2018-11-04T10:12:01.594Z,1007.67
2018-11-04T10:13:08.133Z,1007.70
2018-11-04T10:14:12.604Z,1007.69
2018-11-04T10:15:18.106Z,1007.67
2018-11-04T10:16:23.691Z,1007.65
2018-11-04T10:17:29.131Z,1007.67
2018-11-04T10:18:34.638Z,1007.65
2018-11-04T10:19:41.272Z,1007.63
2018-11-04T10:20:46.117Z,1007.60
2018-11-04T10:21:51.178Z,1007.58
2018-11-04T10:22:56.685Z,1007.58
2018-11-04T10:24:02.210Z,1007.52
2018-11-04T10:25:07.699Z,1007.57
2018-11-04T10:26:14.216Z,1007.54
2018-11-04T10:27:18.717Z,1007.55
2018-11-04T10:28:24.224Z,1007.52
2018-11-04T10:29:29.744Z,1007.50
2018-11-04T10:30:35.252Z,1007.50
2018-11-04T10:31:40.751Z,1007.49
2018-11-04T10:32:47.274Z,1007.46
2018-11-04T10:33:51.775Z,1007.41
2018-11-04T10:34:57.289Z,1007.44
2018-11-04T10:36:02.796Z,1007.46
2018-11-04T10:37:08.333Z,1007.45
2018-11-04T10:38:13.828Z,1007.48
2018-11-04T10:39:20.339Z,1007.49
2018-11-04T10:40:24.833Z,1007.46
2018-11-04T10:41:30.363Z,1007.44
2018-11-04T10:42:35.855Z,1007.44
2018-11-04T10:43:41.370Z,1007.45
2018-11-04T10:44:46.878Z,1007.44
2018-11-04T10:45:53.395Z,1007.42
2018-11-04T10:46:57.919Z,1007.39
2018-11-04T10:48:03.418Z,1007.37
2018-11-04T10:49:08.962Z,1007.35
2018-11-04T10:50:14.424Z,1007.33
2018-11-04T10:51:19.958Z,1007.29
2018-11-04T10:52:26.458Z,1007.27
2018-11-04T10:53:30.956Z,1007.26
2018-11-04T10:54:36.490Z,1007.23
2018-11-04T10:55:42.006Z,1007.26
2018-11-04T10:56:47.493Z,1007.28
2018-11-04T10:57:53.023Z,1007.27
2018-11-04T10:58:59.517Z,1007.17
2018-11-04T11:00:04.037Z,1007.16
2018-11-04T11:01:09.542Z,1007.15
2018-11-04T11:02:15.033Z,1007.11
2018-11-04T11:03:20.552Z,1007.08
2018-11-04T11:04:26.063Z,1007.05
2018-11-04T11:05:32.580Z,1007.10
2018-11-04T11:06:37.085Z,1007.09
2018-11-04T11:07:42.592Z,1007.04
2018-11-04T11:08:48.111Z,1007.03
2018-11-04T11:09:53.609Z,1007.00
2018-11-04T11:10:59.215Z,1007.00
2018-11-04T11:12:05.645Z,1006.99
2018-11-04T11:13:10.141Z,1006.99
2018-11-04T11:14:15.660Z,1006.96
2018-11-04T11:15:21.175Z,1006.94
2018-11-04T11:16:26.670Z,1006.93
2018-11-04T11:17:32.189Z,1006.89
2018-11-04T11:18:38.697Z,1006.88
2018-11-04T11:19:43.203Z,1006.87
2018-11-04T11:20:48.712Z,1006.85
2018-11-04T11:21:54.252Z,1006.82
2018-11-04T11:23:00.036Z,1006.80
2018-11-04T11:24:05.268Z,1006.78
2018-11-04T11:25:11.776Z,1006.75
2018-11-04T11:26:16.342Z,1006.73
2018-11-04T11:27:21.780Z,1006.75
2018-11-04T11:28:27.288Z,1006.71
2018-11-04T11:29:32.821Z,1006.66
2018-11-04T11:30:38.318Z,1006.67
2018-11-04T11:31:44.846Z,1006.68
2018-11-04T11:32:49.336Z,1006.63
2018-11-04T11:33:54.845Z,1006.59
2018-11-04T11:35:00.360Z,1006.57
2018-11-04T11:36:05.879Z,1006.60
2018-11-04T11:37:11.408Z,1006.57
2018-11-04T11:38:17.898Z,1006.51
2018-11-04T11:39:22.405Z,1006.48
2018-11-04T11:40:27.905Z,1006.44
2018-11-04T11:41:33.420Z,1006.41
2018-11-04T11:42:38.937Z,1006.42
2018-11-04T11:43:44.441Z,1006.41
2018-11-04T11:44:50.980Z,1006.38
2018-11-04T11:45:55.495Z,1006.40
2018-11-04T11:47:00.979Z,1006.40
2018-11-04T11:48:06.492Z,1006.39
2018-11-04T11:49:12.009Z,1006.37
2018-11-04T11:50:17.499Z,1006.36
2018-11-04T11:51:24.033Z,1006.35
2018-11-04T11:52:28.593Z,1006.34
2018-11-04T11:53:34.033Z,1006.37
2018-11-04T11:54:39.569Z,1006.36
2018-11-04T11:55:45.056Z,1006.37
2018-11-04T11:56:50.580Z,1006.38
2018-11-04T11:57:57.087Z,1006.36
2018-11-04T11:59:01.596Z,1006.33
2018-11-04T12:00:07.103Z,1006.36
2018-11-04T12:01:12.628Z,1006.37
2018-11-04T12:02:18.222Z,1006.39
2018-11-04T12:03:23.647Z,1006.33
2018-11-04T12:04:30.150Z,1006.28
2018-11-04T12:05:34.664Z,1006.31
2018-11-04T12:06:40.196Z,1006.27
2018-11-04T12:07:45.687Z,1006.25
2018-11-04T12:08:51.195Z,1006.22
2018-11-04T12:09:56.701Z,1006.16
2018-11-04T12:11:03.226Z,1006.12
2018-11-04T12:12:07.734Z,1006.10
2018-11-04T12:13:13.245Z,1006.09
2018-11-04T12:14:18.754Z,1006.05
2018-11-04T12:15:24.273Z,1006.07
2018-11-04T12:16:29.793Z,1006.05
2018-11-04T12:17:36.368Z,1006.01
2018-11-04T12:18:40.815Z,1005.99
2018-11-04T12:19:46.323Z,1006.00
2018-11-04T12:20:51.822Z,1005.99
2018-11-04T12:21:57.337Z,1005.97
2018-11-04T12:23:02.848Z,1005.98
2018-11-04T12:24:09.362Z,1005.99
2018-11-04T12:25:13.864Z,1005.93
2018-11-04T12:26:19.370Z,1005.91
2018-11-04T12:27:24.884Z,1005.92
2018-11-04T12:28:30.402Z,1005.89
2018-11-04T12:29:35.908Z,1005.91
2018-11-04T12:30:42.451Z,1005.89
2018-11-04T12:31:46.925Z,1005.90
2018-11-04T12:32:52.436Z,1005.88
2018-11-04T12:33:57.962Z,1005.88
2018-11-04T12:35:03.509Z,1005.86
2018-11-04T12:36:08.987Z,1005.88
2018-11-04T12:37:15.509Z,1005.85
2018-11-04T12:38:19.994Z,1005.90
2018-11-04T12:39:25.516Z,1005.86
2018-11-04T12:40:31.020Z,1005.84
2018-11-04T12:41:36.544Z,1005.83
2018-11-04T12:42:42.045Z,1005.83
2018-11-04T12:43:48.588Z,1005.80
2018-11-04T12:44:53.076Z,1005.82
2018-11-04T12:45:58.596Z,1005.81
2018-11-04T12:47:04.098Z,1005.78
2018-11-04T12:48:09.607Z,1005.78
2018-11-04T12:49:15.125Z,1005.78
2018-11-04T12:50:21.642Z,1005.77
2018-11-04T12:51:26.152Z,1005.79
2018-11-04T12:52:31.671Z,1005.82
2018-11-04T12:53:37.183Z,1005.76
2018-11-04T12:54:42.676Z,1005.75
2018-11-04T12:55:48.190Z,1005.75
2018-11-04T12:56:54.715Z,1005.69
2018-11-04T12:57:59.222Z,1005.75
2018-11-04T12:59:04.719Z,1005.74
2018-11-04T13:00:10.227Z,1005.72
2018-11-04T13:01:15.771Z,1005.71
2018-11-04T13:02:21.252Z,1005.69
2018-11-04T13:03:27.773Z,1005.64
2018-11-04T13:04:32.291Z,1005.62
2018-11-04T13:05:37.799Z,1005.58
2018-11-04T13:06:43.306Z,1005.57
2018-11-04T13:07:48.825Z,1005.59
2018-11-04T13:08:54.332Z,1005.54
2018-11-04T13:10:00.894Z,1005.55
2018-11-04T13:11:05.354Z,1005.48
2018-11-04T13:12:10.880Z,1005.50